createdAt,value
2018-02-23T00:00:05.836Z,67.25
2018-02-23T00:01:05.751Z,67.25
2018-02-23T00:02:05.663Z,66.69
2018-02-23T00:03:05.577Z,68.29
2018-02-23T00:04:05.490Z,68.01
2018-02-23T00:05:05.408Z,67.35
2018-02-23T00:06:05.320Z,68.10
2018-02-23T00:07:05.231Z,68.86
2018-02-23T00:08:05.144Z,68.01
2018-02-23T00:09:05.059Z,69.33
2018-02-23T00:10:04.973Z,69.62
2018-02-23T00:11:04.886Z,69.24
2018-02-23T00:12:04.799Z,68.10
2018-02-23T00:13:04.713Z,68.29
2018-02-23T00:14:04.627Z,69.43
2018-02-23T00:15:04.539Z,68.39
2018-02-23T00:16:04.454Z,68.01
2018-02-23T00:17:04.367Z,69.43
2018-02-23T00:18:04.282Z,70.56
2018-02-23T00:19:04.194Z,71.12
2018-02-23T00:20:04.108Z,69.81
2018-02-23T00:21:04.022Z,67.91
2018-02-23T00:22:03.938Z,68.86
2018-02-23T00:23:03.848Z,68.20
2018-02-23T00:24:03.763Z,67.91
2018-02-23T00:25:03.676Z,68.29
2018-02-23T00:26:03.590Z,67.82
2018-02-23T00:27:03.502Z,67.54
2018-02-23T00:28:03.415Z,66.88
2018-02-23T00:29:03.331Z,66.59
2018-02-23T00:30:03.244Z,67.07
2018-02-23T00:31:03.156Z,67.35
2018-02-23T00:32:03.070Z,66.22
2018-02-23T00:33:02.984Z,66.88
2018-02-23T00:34:02.898Z,67.35
2018-02-23T00:35:02.810Z,68.10
2018-02-23T00:36:02.724Z,68.01
2018-02-23T00:37:02.638Z,67.54
2018-02-23T00:38:02.551Z,67.44
2018-02-23T00:39:02.464Z,67.44
2018-02-23T00:40:02.377Z,67.25
2018-02-23T00:41:02.291Z,67.35
2018-02-23T00:42:02.205Z,67.44
2018-02-23T00:43:02.117Z,66.88
2018-02-23T00:44:02.034Z,66.88
2018-02-23T00:45:01.992Z,67.07
2018-02-23T00:46:01.858Z,66.97
2018-02-23T00:47:01.774Z,66.41
2018-02-23T00:48:01.706Z,66.41
2018-02-23T00:49:01.598Z,66.41
2018-02-23T00:50:01.510Z,67.07
2018-02-23T00:51:01.422Z,66.88
2018-02-23T00:52:01.336Z,67.07
2018-02-23T00:53:01.250Z,66.31
2018-02-23T00:54:01.163Z,66.50
2018-02-23T00:55:01.074Z,66.12
2018-02-23T00:56:00.989Z,66.69
2018-02-23T00:57:00.905Z,66.50
2018-02-23T00:58:00.815Z,66.50
2018-02-23T00:59:00.727Z,66.50
2018-02-23T01:00:00.641Z,66.88
2018-02-23T01:01:00.554Z,66.97
2018-02-23T01:02:00.467Z,66.88
2018-02-23T01:03:00.380Z,66.97
2018-02-23T01:04:00.294Z,67.25
2018-02-23T01:05:00.208Z,67.63
2018-02-23T01:06:00.121Z,66.50
2018-02-23T01:07:00.034Z,67.25
2018-02-23T01:07:59.947Z,67.54
2018-02-23T01:08:59.860Z,67.25
2018-02-23T01:09:59.774Z,67.35
2018-02-23T01:10:59.686Z,68.01
2018-02-23T01:11:59.601Z,66.97
2018-02-23T01:12:59.514Z,66.59
2018-02-23T01:13:59.431Z,66.59
2018-02-23T01:14:59.339Z,66.88
2018-02-23T01:15:59.252Z,66.97
2018-02-23T01:16:59.165Z,66.41
2018-02-23T01:17:59.079Z,67.91
2018-02-23T01:18:58.991Z,68.10
2018-02-23T01:19:58.906Z,67.63
2018-02-23T01:20:58.818Z,67.25
2018-02-23T01:21:58.733Z,67.07
2018-02-23T01:22:58.645Z,67.25
2018-02-23T01:23:58.558Z,66.50
2018-02-23T01:24:58.472Z,66.50
2018-02-23T01:25:58.385Z,66.50
2018-02-23T01:26:58.297Z,66.50
2018-02-23T01:27:58.211Z,67.25
2018-02-23T01:28:58.124Z,66.41
2018-02-23T01:29:58.037Z,66.22
2018-02-23T01:30:57.950Z,66.41
2018-02-23T01:31:57.863Z,67.35
2018-02-23T01:32:57.775Z,66.41
2018-02-23T01:33:57.690Z,66.50
2018-02-23T01:34:57.600Z,65.84
2018-02-23T01:35:57.515Z,65.84
2018-02-23T01:36:57.427Z,65.93
2018-02-23T01:37:57.342Z,66.59
2018-02-23T01:38:57.254Z,66.59
2018-02-23T01:39:57.167Z,66.50
2018-02-23T01:40:57.081Z,67.07
2018-02-23T01:41:56.994Z,66.97
2018-02-23T01:42:56.906Z,66.97
2018-02-23T01:43:56.819Z,67.16
2018-02-23T01:44:56.733Z,67.25
2018-02-23T01:45:56.644Z,67.63
2018-02-23T01:46:56.558Z,67.25
2018-02-23T01:47:56.470Z,67.72
2018-02-23T01:48:56.384Z,68.39
2018-02-23T01:49:56.298Z,68.29
2018-02-23T01:50:56.210Z,68.39
2018-02-23T01:51:56.124Z,67.63
2018-02-23T01:52:56.038Z,67.82
2018-02-23T01:53:55.994Z,67.35
2018-02-23T01:54:55.861Z,67.41
2018-02-23T01:55:55.775Z,67.97
2018-02-23T01:56:55.689Z,68.16
2018-02-23T01:57:55.603Z,67.72
2018-02-23T01:58:55.513Z,67.35
2018-02-23T01:59:55.426Z,67.72
2018-02-23T02:00:55.339Z,67.63
2018-02-23T02:01:55.253Z,67.63
2018-02-23T02:02:55.165Z,67.54
2018-02-23T02:03:55.080Z,67.07
2018-02-23T02:04:54.992Z,66.78
2018-02-23T02:05:54.904Z,66.22
2018-02-23T02:06:54.817Z,66.69
2018-02-23T02:07:54.730Z,66.59
2018-02-23T02:08:54.643Z,66.59
2018-02-23T02:09:54.555Z,67.07
2018-02-23T02:10:54.467Z,67.35
2018-02-23T02:11:54.380Z,66.50
2018-02-23T02:12:54.294Z,66.78
2018-02-23T02:13:54.206Z,67.25
2018-02-23T02:14:54.119Z,66.37
2018-02-23T02:15:54.032Z,66.78
2018-02-23T02:16:53.947Z,66.31
2018-02-23T02:17:53.858Z,67.16
2018-02-23T02:18:53.773Z,67.35
2018-02-23T02:19:53.683Z,67.22
2018-02-23T02:20:53.597Z,66.94
2018-02-23T02:21:53.509Z,67.03
2018-02-23T02:22:53.422Z,67.69
2018-02-23T02:23:53.334Z,67.32
2018-02-23T02:24:53.248Z,67.32
2018-02-23T02:25:53.161Z,67.54
2018-02-23T02:26:53.072Z,66.94
2018-02-23T02:27:52.986Z,67.32
2018-02-23T02:28:52.903Z,66.78
2018-02-23T02:29:52.812Z,66.94
2018-02-23T02:30:52.725Z,66.94
2018-02-23T02:31:52.640Z,67.03
2018-02-23T02:32:52.551Z,67.22
2018-02-23T02:33:52.464Z,66.84
2018-02-23T02:34:52.376Z,66.94
2018-02-23T02:35:52.290Z,66.84
2018-02-23T02:36:52.203Z,66.37
2018-02-23T02:37:52.115Z,66.18
2018-02-23T02:38:52.031Z,66.28
2018-02-23T02:39:51.939Z,66.94
2018-02-23T02:40:51.862Z,66.59
2018-02-23T02:41:51.775Z,66.37
2018-02-23T02:42:51.679Z,67.32
2018-02-23T02:43:51.591Z,66.37
2018-02-23T02:44:51.505Z,66.75
2018-02-23T02:45:51.420Z,67.22
2018-02-23T02:46:51.331Z,68.07
2018-02-23T02:47:51.245Z,68.26
2018-02-23T02:48:51.155Z,68.16
2018-02-23T02:49:51.068Z,68.07
2018-02-23T02:50:50.982Z,68.16
2018-02-23T02:51:50.894Z,67.41
2018-02-23T02:52:50.813Z,67.22
2018-02-23T02:53:55.752Z,67.50
2018-02-23T02:54:50.632Z,67.41
2018-02-23T02:55:50.546Z,66.84
2018-02-23T02:56:50.462Z,66.75
2018-02-23T02:57:50.371Z,67.32
2018-02-23T02:58:50.285Z,67.22
2018-02-23T02:59:50.198Z,67.03
2018-02-23T03:00:50.108Z,67.32
2018-02-23T03:01:50.024Z,67.60
2018-02-23T03:02:49.935Z,68.07
2018-02-23T03:03:49.849Z,68.82
2018-02-23T03:04:49.759Z,68.73
2018-02-23T03:05:49.674Z,68.07
2018-02-23T03:06:49.586Z,67.79
2018-02-23T03:07:49.498Z,67.41
2018-02-23T03:08:49.411Z,67.03
2018-02-23T03:09:49.324Z,68.73
2018-02-23T03:10:49.236Z,69.58
2018-02-23T03:11:49.150Z,68.35
2018-02-23T03:12:49.062Z,67.88
2018-02-23T03:13:48.976Z,67.03
2018-02-23T03:14:48.887Z,66.94
2018-02-23T03:15:48.801Z,67.41
2018-02-23T03:16:48.714Z,68.73
2018-02-23T03:17:48.628Z,68.35
2018-02-23T03:18:48.539Z,68.07
2018-02-23T03:19:48.451Z,67.41
2018-02-23T03:20:48.364Z,67.88
2018-02-23T03:21:48.277Z,68.26
2018-02-23T03:22:48.191Z,68.26
2018-02-23T03:23:48.101Z,67.22
2018-02-23T03:24:48.014Z,67.32
2018-02-23T03:25:47.927Z,67.22
2018-02-23T03:26:47.852Z,67.41
2018-02-23T03:27:47.753Z,68.44
2018-02-23T03:28:47.664Z,69.49
2018-02-23T03:29:47.578Z,68.82
2018-02-23T03:30:47.496Z,67.97
2018-02-23T03:31:47.406Z,67.88
2018-02-23T03:32:47.316Z,68.73
2018-02-23T03:33:47.228Z,69.20
2018-02-23T03:34:47.140Z,68.73
2018-02-23T03:35:47.053Z,68.16
2018-02-23T03:36:46.966Z,68.35
2018-02-23T03:37:46.878Z,67.41
2018-02-23T03:38:46.791Z,67.50
2018-02-23T03:39:46.703Z,67.60
2018-02-23T03:40:46.616Z,67.41
2018-02-23T03:41:46.528Z,67.41
2018-02-23T03:42:46.440Z,67.69
2018-02-23T03:43:46.353Z,67.41
2018-02-23T03:44:46.269Z,67.41
2018-02-23T03:45:46.178Z,67.69
2018-02-23T03:46:46.143Z,67.88
2018-02-23T03:47:46.002Z,68.16
2018-02-23T03:48:45.915Z,67.79
2018-02-23T03:49:45.829Z,69.30
2018-02-23T03:50:45.741Z,69.58
2018-02-23T03:51:45.654Z,69.39
2018-02-23T03:52:45.565Z,69.39
2018-02-23T03:53:45.524Z,68.54
2018-02-23T03:54:45.392Z,67.88
2018-02-23T03:55:45.304Z,68.16
2018-02-23T03:56:45.216Z,68.35
2018-02-23T03:57:45.128Z,68.07
2018-02-23T03:58:45.040Z,68.07
2018-02-23T03:59:44.952Z,68.63
2018-02-23T04:00:44.866Z,68.44
2018-02-23T04:01:44.778Z,69.39
2018-02-23T04:02:44.694Z,68.07
2018-02-23T04:03:44.603Z,68.26
2018-02-23T04:04:44.518Z,67.97
2018-02-23T04:05:44.431Z,68.26
2018-02-23T04:06:44.338Z,67.97
2018-02-23T04:07:44.254Z,68.07
2018-02-23T04:08:44.165Z,68.73
2018-02-23T04:09:44.079Z,68.26
2018-02-23T04:10:43.989Z,68.07
2018-02-23T04:11:43.902Z,67.97
2018-02-23T04:12:43.814Z,68.35
2018-02-23T04:13:43.727Z,67.32
2018-02-23T04:14:43.638Z,67.79
2018-02-23T04:15:43.553Z,67.79
2018-02-23T04:16:43.464Z,67.97
2018-02-23T04:17:43.377Z,68.07
2018-02-23T04:18:43.288Z,68.54
2018-02-23T04:19:43.202Z,67.97
2018-02-23T04:20:43.115Z,68.26
2018-02-23T04:21:43.028Z,67.97
2018-02-23T04:22:42.939Z,68.16
2018-02-23T04:23:42.852Z,68.44
2018-02-23T04:24:42.764Z,69.20
2018-02-23T04:25:42.679Z,69.30
2018-02-23T04:26:42.590Z,68.54
2018-02-23T04:27:42.504Z,68.35
2018-02-23T04:28:42.414Z,69.30
2018-02-23T04:29:42.333Z,69.30
2018-02-23T04:30:42.238Z,68.54
2018-02-23T04:31:42.152Z,69.30
2018-02-23T04:32:42.068Z,70.15
2018-02-23T04:33:41.977Z,69.20
2018-02-23T04:34:41.889Z,70.24
2018-02-23T04:35:41.802Z,71.09
2018-02-23T04:36:41.715Z,71.84
2018-02-23T04:37:41.777Z,71.19
2018-02-23T04:38:41.539Z,70.24
2018-02-23T04:39:41.452Z,70.15
2018-02-23T04:40:41.365Z,69.96
2018-02-23T04:41:41.277Z,70.53
2018-02-23T04:42:41.190Z,70.15
2018-02-23T04:43:41.103Z,69.49
2018-02-23T04:44:41.015Z,69.58
2018-02-23T04:45:40.929Z,69.77
2018-02-23T04:46:40.842Z,69.86
2018-02-23T04:47:40.752Z,69.49
2018-02-23T04:48:40.664Z,69.49
2018-02-23T04:49:40.578Z,70.81
2018-02-23T04:50:40.489Z,70.72
2018-02-23T04:51:40.402Z,70.15
2018-02-23T04:52:40.314Z,69.39
2018-02-23T04:53:40.227Z,69.39
2018-02-23T04:54:40.139Z,69.39
2018-02-23T04:55:40.052Z,69.58
2018-02-23T04:56:39.965Z,69.49
2018-02-23T04:57:39.877Z,69.58
2018-02-23T04:58:39.788Z,69.49
2018-02-23T04:59:39.701Z,69.49
2018-02-23T05:00:39.617Z,69.39
2018-02-23T05:01:39.528Z,69.30
2018-02-23T05:02:39.437Z,69.20
2018-02-23T05:03:39.355Z,68.73
2018-02-23T05:04:39.263Z,69.30
2018-02-23T05:05:39.175Z,69.58
2018-02-23T05:06:39.087Z,69.20
2018-02-23T05:07:38.999Z,70.15
2018-02-23T05:08:38.911Z,70.62
2018-02-23T05:09:38.824Z,70.15
2018-02-23T05:10:38.736Z,70.34
2018-02-23T05:11:38.647Z,69.96
2018-02-23T05:12:38.560Z,70.34
2018-02-23T05:13:38.473Z,70.62
2018-02-23T05:14:38.384Z,70.72
2018-02-23T05:15:38.296Z,70.34
2018-02-23T05:16:38.209Z,70.53
2018-02-23T05:17:38.121Z,71.28
2018-02-23T05:18:38.032Z,70.72
2018-02-23T05:19:37.945Z,70.53
2018-02-23T05:20:37.858Z,70.15
2018-02-23T05:21:37.771Z,70.05
2018-02-23T05:22:37.681Z,70.62
2018-02-23T05:23:37.594Z,70.05
2018-02-23T05:24:37.507Z,70.62
2018-02-23T05:25:37.418Z,70.53
2018-02-23T05:26:37.330Z,70.62
2018-02-23T05:27:37.243Z,70.34
2018-02-23T05:28:37.156Z,70.05
2018-02-23T05:29:37.067Z,70.90
2018-02-23T05:30:36.979Z,70.81
2018-02-23T05:31:36.890Z,70.72
2018-02-23T05:32:36.803Z,70.90
2018-02-23T05:33:36.715Z,70.62
2018-02-23T05:34:36.728Z,70.53
2018-02-23T05:35:36.539Z,70.62
2018-02-23T05:36:36.451Z,70.72
2018-02-23T05:37:36.364Z,70.72
2018-02-23T05:38:36.275Z,70.72
2018-02-23T05:39:36.187Z,70.15
2018-02-23T05:40:36.099Z,70.15
2018-02-23T05:41:36.012Z,70.53
2018-02-23T05:42:35.936Z,70.15
2018-02-23T05:43:35.834Z,70.62
2018-02-23T05:44:35.747Z,71.00
2018-02-23T05:45:35.661Z,70.72
2018-02-23T05:46:35.572Z,70.53
2018-02-23T05:47:35.484Z,70.90
2018-02-23T05:48:35.395Z,70.62
2018-02-23T05:49:35.308Z,71.37
2018-02-23T05:50:35.217Z,71.37
2018-02-23T05:51:35.131Z,70.90
2018-02-23T05:52:35.043Z,70.43
2018-02-23T05:53:34.958Z,70.34
2018-02-23T05:54:34.869Z,70.53
2018-02-23T05:55:34.780Z,71.28
2018-02-23T05:56:34.692Z,71.94
2018-02-23T05:57:34.604Z,72.00
2018-02-23T05:58:34.515Z,71.06
2018-02-23T05:59:34.427Z,71.00
2018-02-23T06:00:34.341Z,71.19
2018-02-23T06:01:34.251Z,71.37
2018-02-23T06:02:34.161Z,71.37
2018-02-23T06:03:34.074Z,71.09
2018-02-23T06:04:33.987Z,71.34
2018-02-23T06:05:33.899Z,72.13
2018-02-23T06:06:33.811Z,71.56
2018-02-23T06:07:33.722Z,71.84
2018-02-23T06:08:33.635Z,72.03
2018-02-23T06:09:33.547Z,72.28
2018-02-23T06:10:33.458Z,72.38
2018-02-23T06:11:33.375Z,72.56
2018-02-23T06:12:33.284Z,72.09
2018-02-23T06:13:33.196Z,71.91
2018-02-23T06:14:33.107Z,71.81
2018-02-23T06:15:33.019Z,71.81
2018-02-23T06:16:32.931Z,72.28
2018-02-23T06:17:32.843Z,72.28
2018-02-23T06:18:32.755Z,72.56
2018-02-23T06:19:32.668Z,73.13
2018-02-23T06:20:32.587Z,73.32
2018-02-23T06:21:32.492Z,73.41
2018-02-23T06:22:32.455Z,73.51
2018-02-23T06:23:32.315Z,73.03
2018-02-23T06:24:32.228Z,73.03
2018-02-23T06:25:32.140Z,73.13
2018-02-23T06:26:32.051Z,72.75
2018-02-23T06:27:31.965Z,72.85
2018-02-23T06:28:31.879Z,72.85
2018-02-23T06:29:31.789Z,72.75
2018-02-23T06:30:31.701Z,72.66
2018-02-23T06:31:31.612Z,72.75
2018-02-23T06:32:31.525Z,73.32
2018-02-23T06:33:31.437Z,72.85
2018-02-23T06:34:31.348Z,72.47
2018-02-23T06:35:31.260Z,72.28
2018-02-23T06:36:31.201Z,72.28
2018-02-23T06:37:31.086Z,72.75
2018-02-23T06:38:30.997Z,72.19
2018-02-23T06:39:30.909Z,72.69
2018-02-23T06:40:30.820Z,72.51
2018-02-23T06:41:30.733Z,72.66
2018-02-23T06:42:30.644Z,71.75
2018-02-23T06:43:30.557Z,72.00
2018-02-23T06:44:30.469Z,71.91
2018-02-23T06:45:30.381Z,72.75
2018-02-23T06:46:30.292Z,73.60
2018-02-23T06:47:30.205Z,73.60
2018-02-23T06:48:30.116Z,73.41
2018-02-23T06:49:30.029Z,73.32
2018-02-23T06:50:29.942Z,73.03
2018-02-23T06:51:29.852Z,73.03
2018-02-23T06:52:29.765Z,73.03
2018-02-23T06:53:29.676Z,72.94
2018-02-23T06:54:29.588Z,72.85
2018-02-23T06:55:29.502Z,73.22
2018-02-23T06:56:29.413Z,73.88
2018-02-23T06:57:29.326Z,74.36
2018-02-23T06:58:29.238Z,74.55
2018-02-23T06:59:29.149Z,74.26
2018-02-23T07:00:29.062Z,74.45
2018-02-23T07:01:28.974Z,75.49
2018-02-23T07:02:28.885Z,76.25
2018-02-23T07:03:28.797Z,75.78
2018-02-23T07:04:28.710Z,75.59
2018-02-23T07:05:28.623Z,75.68
2018-02-23T07:06:28.534Z,75.11
2018-02-23T07:07:28.447Z,75.02
2018-02-23T07:08:28.359Z,74.45
2018-02-23T07:09:28.271Z,74.17
2018-02-23T07:10:28.186Z,74.26
2018-02-23T07:11:28.095Z,74.74
2018-02-23T07:12:28.007Z,74.26
2018-02-23T07:13:27.920Z,74.17
2018-02-23T07:14:27.831Z,74.07
2018-02-23T07:15:27.744Z,74.26
2018-02-23T07:16:27.724Z,74.02
2018-02-23T07:17:27.568Z,73.55
2018-02-23T07:18:27.479Z,73.79
2018-02-23T07:19:27.392Z,73.07
2018-02-23T07:20:27.304Z,73.17
2018-02-23T07:21:27.216Z,73.51
2018-02-23T07:22:27.128Z,74.21
2018-02-23T07:23:27.040Z,74.58
2018-02-23T07:24:26.953Z,74.55
2018-02-23T07:25:26.864Z,74.74
2018-02-23T07:26:26.776Z,74.92
2018-02-23T07:27:26.689Z,73.98
2018-02-23T07:28:26.601Z,74.36
2018-02-23T07:29:26.513Z,73.93
2018-02-23T07:30:26.424Z,73.93
2018-02-23T07:31:26.337Z,74.49
2018-02-23T07:32:26.249Z,74.96
2018-02-23T07:33:26.162Z,74.77
2018-02-23T07:34:26.074Z,74.49
2018-02-23T07:35:25.987Z,74.30
2018-02-23T07:36:25.903Z,74.49
2018-02-23T07:37:25.812Z,74.77
2018-02-23T07:38:25.723Z,74.30
2018-02-23T07:39:25.654Z,75.05
2018-02-23T07:40:25.548Z,75.24
2018-02-23T07:41:25.460Z,74.02
2018-02-23T07:42:25.378Z,73.36
2018-02-23T07:43:25.284Z,72.88
2018-02-23T07:44:25.198Z,72.98
2018-02-23T07:45:25.110Z,72.69
2018-02-23T07:46:25.022Z,73.26
2018-02-23T07:47:24.933Z,73.26
2018-02-23T07:48:24.846Z,73.45
2018-02-23T07:49:24.760Z,72.88
2018-02-23T07:50:24.703Z,72.22
2018-02-23T07:51:24.583Z,72.60
2018-02-23T07:52:24.500Z,72.51
2018-02-23T07:53:24.408Z,72.51
2018-02-23T07:54:24.321Z,72.22
2018-02-23T07:55:24.234Z,72.41
2018-02-23T07:56:24.147Z,72.32
2018-02-23T07:57:24.059Z,72.13
2018-02-23T07:58:23.971Z,72.32
2018-02-23T07:59:23.882Z,72.69
2018-02-23T08:00:23.796Z,72.69
2018-02-23T08:01:23.709Z,72.22
2018-02-23T08:02:23.621Z,71.75
2018-02-23T08:03:23.534Z,71.37
2018-02-23T08:04:23.447Z,71.19
2018-02-23T08:05:23.360Z,71.09
2018-02-23T08:06:23.272Z,72.03
2018-02-23T08:07:23.185Z,71.19
2018-02-23T08:08:23.098Z,71.19
2018-02-23T08:09:23.011Z,71.28
2018-02-23T08:10:22.925Z,71.09
2018-02-23T08:11:22.836Z,71.28
2018-02-23T08:12:22.749Z,71.12
2018-02-23T08:13:22.662Z,71.60
2018-02-23T08:14:22.573Z,71.79
2018-02-23T08:15:22.487Z,71.60
2018-02-23T08:16:22.400Z,70.37
2018-02-23T08:17:22.313Z,70.28
2018-02-23T08:18:22.225Z,70.65
2018-02-23T08:19:22.138Z,70.75
2018-02-23T08:20:22.051Z,70.94
2018-02-23T08:21:21.964Z,70.65
2018-02-23T08:22:21.877Z,69.33
2018-02-23T08:23:21.793Z,69.05
2018-02-23T08:24:21.703Z,69.43
2018-02-23T08:25:21.616Z,68.95
2018-02-23T08:26:21.529Z,69.33
2018-02-23T08:27:21.442Z,69.14
2018-02-23T08:28:21.356Z,68.76
2018-02-23T08:29:21.269Z,69.24
2018-02-23T08:30:21.182Z,68.95
2018-02-23T08:31:21.095Z,68.95
2018-02-23T08:32:21.008Z,67.82
2018-02-23T08:33:20.922Z,68.10
2018-02-23T08:34:20.834Z,68.10
2018-02-23T08:35:20.748Z,67.44
2018-02-23T08:36:20.762Z,68.01
2018-02-23T08:37:20.575Z,68.29
2018-02-23T08:38:20.487Z,68.29
2018-02-23T08:39:20.401Z,68.01
2018-02-23T08:40:20.316Z,67.91
2018-02-23T08:41:20.228Z,67.44
2018-02-23T08:42:20.141Z,68.48
2018-02-23T08:43:20.055Z,68.14
2018-02-23T08:44:19.968Z,68.23
2018-02-23T08:45:19.883Z,67.95
2018-02-23T08:46:19.795Z,67.47
2018-02-23T08:47:19.709Z,68.23
2018-02-23T08:48:19.622Z,68.33
2018-02-23T08:49:19.537Z,67.47
2018-02-23T08:50:19.448Z,67.47
2018-02-23T08:51:19.370Z,67.66
2018-02-23T08:52:19.284Z,66.82
2018-02-23T08:53:19.191Z,66.82
2018-02-23T08:54:19.104Z,66.82
2018-02-23T08:55:19.022Z,66.72
2018-02-23T08:56:18.933Z,66.53
2018-02-23T08:57:18.846Z,66.44
2018-02-23T08:58:18.758Z,65.78
2018-02-23T08:59:18.673Z,65.68
2018-02-23T09:00:18.590Z,65.87
2018-02-23T09:01:18.504Z,66.44
2018-02-23T09:02:18.416Z,65.87
2018-02-23T09:03:18.333Z,66.06
2018-02-23T09:04:18.242Z,65.87
2018-02-23T09:05:18.158Z,65.87
2018-02-23T09:06:18.076Z,65.59
2018-02-23T09:07:17.985Z,65.11
2018-02-23T09:08:17.899Z,65.78
2018-02-23T09:09:17.817Z,65.78
2018-02-23T09:10:17.726Z,65.59
2018-02-23T09:11:17.641Z,66.06
2018-02-23T09:12:17.555Z,65.59
2018-02-23T09:13:17.469Z,65.40
2018-02-23T09:14:17.383Z,65.68
2018-02-23T09:15:17.297Z,65.72
2018-02-23T09:16:17.216Z,64.54
2018-02-23T09:17:17.126Z,64.36
2018-02-23T09:18:17.040Z,64.64
2018-02-23T09:19:16.955Z,64.07
2018-02-23T09:20:16.868Z,64.36
2018-02-23T09:21:16.783Z,64.64
2018-02-23T09:22:16.699Z,64.64
2018-02-23T09:23:16.616Z,64.64
2018-02-23T09:24:16.525Z,64.83
2018-02-23T09:25:16.440Z,64.67
2018-02-23T09:26:16.354Z,64.96
2018-02-23T09:27:16.271Z,63.73
2018-02-23T09:28:16.183Z,63.45
2018-02-23T09:29:16.098Z,63.45
2018-02-23T09:30:16.012Z,63.64
2018-02-23T09:31:15.926Z,64.20
2018-02-23T09:32:15.840Z,63.45
2018-02-23T09:33:15.757Z,62.59
2018-02-23T09:34:15.673Z,62.78
2018-02-23T09:35:15.584Z,62.78
2018-02-23T09:36:15.499Z,62.69
2018-02-23T09:37:15.414Z,62.21
2018-02-23T09:38:15.328Z,62.50
2018-02-23T09:39:15.242Z,61.74
2018-02-23T09:40:15.159Z,62.21
2018-02-23T09:41:15.074Z,62.97
2018-02-23T09:42:14.986Z,62.50
2018-02-23T09:43:14.901Z,61.83
2018-02-23T09:44:14.819Z,62.21
2018-02-23T09:45:14.731Z,61.93
2018-02-23T09:46:14.649Z,62.12
2018-02-23T09:47:14.562Z,61.74
2018-02-23T09:48:14.476Z,62.50
2018-02-23T09:49:14.389Z,62.12
2018-02-23T09:50:14.337Z,61.36
2018-02-23T09:51:14.219Z,61.74
2018-02-23T09:52:14.135Z,62.21
2018-02-23T09:53:14.049Z,61.93
2018-02-23T09:54:13.964Z,61.65
2018-02-23T09:55:13.879Z,61.46
2018-02-23T09:56:13.794Z,61.46
2018-02-23T09:57:13.710Z,61.83
2018-02-23T09:58:13.624Z,61.46
2018-02-23T09:59:13.540Z,61.83
2018-02-23T10:00:13.455Z,62.31
2018-02-23T10:01:13.372Z,62.78
2018-02-23T10:02:13.286Z,61.87
2018-02-23T10:03:13.202Z,60.83
2018-02-23T10:04:13.118Z,60.26
2018-02-23T10:05:13.034Z,59.50
2018-02-23T10:06:12.948Z,58.94
2018-02-23T10:07:12.864Z,58.75
2018-02-23T10:08:12.780Z,59.03
2018-02-23T10:09:12.696Z,59.03
2018-02-23T10:10:12.610Z,58.78
2018-02-23T10:11:12.528Z,58.49
2018-02-23T10:12:12.446Z,57.54
2018-02-23T10:13:12.361Z,56.41
2018-02-23T10:14:12.277Z,56.41
2018-02-23T10:15:12.194Z,56.76
2018-02-23T10:16:12.109Z,56.67
2018-02-23T10:17:12.026Z,56.95
2018-02-23T10:18:11.943Z,57.07
2018-02-23T10:19:11.859Z,56.70
2018-02-23T10:20:11.776Z,56.60
2018-02-23T10:21:11.693Z,56.22
2018-02-23T10:22:11.609Z,55.49
2018-02-23T10:23:11.525Z,55.27
2018-02-23T10:24:11.443Z,55.46
2018-02-23T10:25:11.362Z,56.22
2018-02-23T10:26:11.277Z,55.75
2018-02-23T10:27:11.194Z,56.22
2018-02-23T10:28:11.112Z,56.32
2018-02-23T10:29:11.030Z,56.22
2018-02-23T10:30:10.947Z,56.13
2018-02-23T10:31:10.864Z,55.08
2018-02-23T10:32:10.783Z,56.03
2018-02-23T10:33:10.699Z,56.51
2018-02-23T10:34:10.616Z,57.92
2018-02-23T10:35:10.533Z,56.88
2018-02-23T10:36:10.451Z,56.32
2018-02-23T10:37:10.375Z,56.60
2018-02-23T10:38:10.286Z,56.70
2018-02-23T10:39:10.203Z,56.22
2018-02-23T10:40:10.121Z,56.29
2018-02-23T10:41:10.039Z,56.38
2018-02-23T10:42:09.955Z,57.04
2018-02-23T10:43:09.872Z,57.71
2018-02-23T10:44:09.791Z,57.52
2018-02-23T10:45:09.707Z,57.14
2018-02-23T10:46:09.624Z,56.76
2018-02-23T10:47:09.541Z,56.60
2018-02-23T10:48:09.459Z,56.60
2018-02-23T10:49:09.376Z,56.13
2018-02-23T10:50:09.294Z,55.18
2018-02-23T10:51:09.210Z,54.99
2018-02-23T10:52:09.129Z,54.74
2018-02-23T10:53:09.046Z,54.16
2018-02-23T10:54:08.963Z,54.16
2018-02-23T10:55:08.881Z,53.13
2018-02-23T10:56:08.799Z,53.31
2018-02-23T10:57:08.717Z,52.87
2018-02-23T10:58:08.635Z,52.68
2018-02-23T10:59:08.552Z,52.29
2018-02-23T11:00:08.476Z,51.54
2018-02-23T11:01:08.390Z,51.80
2018-02-23T11:02:08.308Z,52.37
2018-02-23T11:03:08.228Z,52.56
2018-02-23T11:04:08.147Z,51.80
2018-02-23T11:05:08.066Z,51.64
2018-02-23T11:06:07.985Z,51.82
2018-02-23T11:07:07.904Z,50.97
2018-02-23T11:08:07.825Z,50.31
2018-02-23T11:09:07.747Z,51.07
2018-02-23T11:10:07.664Z,50.97
2018-02-23T11:11:07.584Z,50.31
2018-02-23T11:12:07.505Z,51.07
2018-02-23T11:13:07.426Z,50.59
2018-02-23T11:14:07.344Z,50.95
2018-02-23T11:15:07.266Z,52.37
2018-02-23T11:16:07.189Z,53.59
2018-02-23T11:17:07.106Z,52.94
2018-02-23T11:18:07.026Z,53.03
2018-02-23T11:19:06.946Z,53.13
2018-02-23T11:20:06.866Z,53.22
2018-02-23T11:21:06.787Z,51.99
2018-02-23T11:22:06.705Z,53.22
2018-02-23T11:23:06.626Z,52.75
2018-02-23T11:24:06.546Z,52.84
2018-02-23T11:25:06.466Z,54.10
2018-02-23T11:26:06.385Z,53.44
2018-02-23T11:27:06.304Z,51.64
2018-02-23T11:28:06.226Z,50.76
2018-02-23T11:29:06.146Z,51.82
2018-02-23T11:30:06.066Z,51.70
2018-02-23T11:31:05.985Z,51.80
2018-02-23T11:32:05.906Z,51.23
2018-02-23T11:33:05.828Z,51.80
2018-02-23T11:34:05.749Z,51.70
2018-02-23T11:35:05.666Z,51.54
2018-02-23T11:36:05.587Z,51.37
2018-02-23T11:37:05.507Z,50.12
2018-02-23T11:38:05.426Z,50.31
2018-02-23T11:39:05.350Z,49.38
2018-02-23T11:40:05.268Z,49.57
2018-02-23T11:41:05.201Z,49.48
2018-02-23T11:42:05.109Z,48.82
2018-02-23T11:43:05.030Z,47.87
2018-02-23T11:44:04.951Z,47.49
2018-02-23T11:45:04.873Z,47.42
2018-02-23T11:46:04.793Z,46.78
2018-02-23T11:47:04.714Z,46.42
2018-02-23T11:48:04.637Z,44.17
2018-02-23T11:49:04.560Z,42.76
2018-02-23T11:50:04.483Z,41.64
2018-02-23T11:51:04.405Z,40.69
2018-02-23T11:52:04.329Z,39.13
2018-02-23T11:53:04.253Z,40.46
2018-02-23T11:54:04.178Z,41.05
2018-02-23T11:55:04.103Z,40.77
2018-02-23T11:56:04.030Z,40.37
2018-02-23T11:57:03.953Z,40.53
2018-02-23T11:58:03.878Z,41.03
2018-02-23T11:59:03.803Z,40.84
2018-02-23T12:00:03.730Z,40.84
2018-02-23T12:01:03.657Z,40.08
2018-02-23T12:02:03.581Z,40.08
2018-02-23T12:03:03.507Z,39.62
2018-02-23T12:04:03.434Z,39.74
2018-02-23T12:05:03.362Z,39.45
2018-02-23T12:06:03.288Z,38.71
2018-02-23T12:07:03.215Z,37.69
2018-02-23T12:08:03.142Z,36.05
2018-02-23T12:09:03.073Z,35.27
2018-02-23T12:10:02.998Z,36.13
2018-02-23T12:11:02.926Z,37.57
2018-02-23T12:12:02.855Z,37.19
2018-02-23T12:13:02.785Z,36.72
2018-02-23T12:14:02.712Z,36.35
2018-02-23T12:15:02.641Z,35.48
2018-02-23T12:16:02.568Z,35.75
2018-02-23T12:17:02.500Z,36.15
2018-02-23T12:18:02.428Z,35.86
2018-02-23T12:19:02.357Z,35.97
2018-02-23T12:20:02.291Z,35.19
2018-02-23T12:21:02.217Z,35.27
2018-02-23T12:22:02.146Z,35.65
2018-02-23T12:23:02.077Z,36.32
2018-02-23T12:24:02.006Z,35.84
2018-02-23T12:25:01.939Z,37.15
2018-02-23T12:26:01.865Z,37.54
2018-02-23T12:27:01.795Z,37.54
2018-02-23T12:28:01.725Z,37.54
2018-02-23T12:29:01.655Z,38.01
2018-02-23T12:30:01.586Z,38.48
2018-02-23T12:31:01.514Z,38.48
2018-02-23T12:32:01.444Z,37.73
2018-02-23T12:33:01.373Z,38.14
2018-02-23T12:34:01.303Z,36.74
2018-02-23T12:35:01.234Z,35.00
2018-02-23T12:36:01.162Z,35.56
2018-02-23T12:37:01.094Z,35.06
2018-02-23T12:38:01.022Z,37.13
2018-02-23T12:39:00.952Z,39.06
2018-02-23T12:40:00.883Z,38.12
2018-02-23T12:41:00.813Z,37.08
2018-02-23T12:42:00.742Z,36.87
2018-02-23T12:43:00.672Z,37.54
2018-02-23T12:44:00.603Z,38.29
2018-02-23T12:45:00.533Z,37.54
2018-02-23T12:46:00.464Z,37.18
2018-02-23T12:47:00.392Z,35.63
2018-02-23T12:48:00.324Z,36.38
2018-02-23T12:49:00.251Z,38.12
2018-02-23T12:50:00.181Z,37.27
2018-02-23T12:51:00.110Z,36.40